N0REH Weather Reports


Display with metric or nautical units.
time (UTC)temp
F
wind
direction
speed
MPH
gust
MPH
rain 1hr
in
rain 24hr
in
rain mn
in
humidity
%
barometer
mb
20240723110026 66 329 0.0 0.0 0.00 0.32 0.32 98 1013.8
20240723104524 66 312 0.0 0.0 0.00 0.32 0.32 98 1014.0
20240723103024 67 8 0.0 1.0 0.00 0.32 0.32 98 1014.1
20240723101524 67 4 0.0 1.0 0.00 0.32 0.32 98 1014.0
20240723100011 66 34 0.0 0.0 0.00 0.32 0.32 98 1014.0
20240723094511 66 34 0.0 0.0 0.00 0.32 0.32 98 1013.8
20240723093010 66 34 0.0 1.0 0.00 0.32 0.32 98 1013.7
20240723091510 66 51 0.0 0.0 0.00 0.32 0.32 98 1013.8
20240723090010 66 30 0.0 0.0 0.00 0.32 0.32 98 1013.6
20240723084509 65 12 0.0 0.0 0.00 0.32 0.32 98 1013.5
20240723083008 65 12 0.0 0.0 0.00 0.32 0.32 98 1013.4
20240723081506 66 12 0.0 0.0 0.00 0.32 0.32 98 1013.4
20240723080057 66 12 0.0 0.0 0.00 0.32 0.32 98 1013.4
20240723074548 66 12 0.0 0.0 0.00 0.32 0.32 98 1013.4
20240723073037 66 12 0.0 0.0 0.00 0.32 0.32 98 1013.4
20240723071535 67 12 0.0 0.0 0.00 0.32 0.32 98 1013.3
20240723070041 67 12 0.0 3.0 0.00 0.32 0.32 98 1013.3
20240723064535 67 360 0.0 0.0 0.00 0.32 0.32 98 1013.4
20240723063035 67 5 0.0 0.0 0.00 0.32 0.32 98 1013.3
20240723061539 67 6 0.0 0.0 0.00 0.32 0.32 98 1013.4
20240723060032 67 6 0.0 0.0 0.00 0.32 0.32 98 1013.3
20240723054532 67 5 0.0 0.0 0.00 0.32 0.32 98 1013.3
20240723053022 67 5 0.0 0.0 0.00 0.32 0.32 98 1013.2
20240723051520 67 360 0.0 0.0 0.00 0.32 0.32 98 1013.2
20240723050028 67 359 0.0 0.0 0.00 0.32 0.32 98 1013.2
20240723044520 67 359 0.0 0.0 0.00 0.32 0.32 98 1013.1
20240723043019 67 359 0.0 0.0 0.00 0.32 0.32 98 1013.3
20240723041519 67 359 0.0 0.0 0.00 0.32 0.32 98 1013.2
20240723040018 67 359 0.0 0.0 0.00 0.32 0.32 97 1013.1
20240723034523 67 359 0.0 0.0 0.00 0.32 0.32 97 1013.0
20240723033005 68 360 0.0 0.0 0.00 0.32 0.32 98 1013.0
20240723031505 68 1 0.0 0.0 0.00 0.32 0.32 97 1013.0
20240723030012 68 1 0.0 1.0 0.00 0.32 0.32 97 1013.0
20240723024511 68 358 0.0 0.0 0.00 0.32 0.32 97 1013.0
20240723023004 68 360 0.0 0.0 0.00 0.32 0.32 97 1012.8
20240723021502 68 256 0.0 3.0 0.00 0.32 0.32 97 1012.8
20240723020003 68 205 0.0 3.0 0.00 0.32 0.32 97 1012.9
20240723014502 68 217 0.0 0.0 0.01 0.32 0.32 97 1013.0
20240723013050 68 218 0.0 1.0 0.01 0.32 0.32 97 1012.8
20240723011549 68 231 0.0 0.0 0.01 0.32 0.32 97 1012.7
20240723010049 67 231 0.0 1.0 0.01 0.32 0.32 96 1012.6
20240723004548 67 46 0.0 1.0 0.00 0.31 0.31 96 1012.8
20240723003047 67 119 0.0 4.0 0.13 0.31 0.31 96 1012.6
20240723001547 67 20 0.0 6.0 0.31 0.31 0.31 95 1012.6
20240723000046 67 203 0.0 1.0 0.31 0.31 0.31 95 1012.6
20240722234549 66 100 0.0 6.0 0.31 0.31 0.31 93 1012.4
20240722233032 66 138 2.0 16.0 0.17 0.17 0.17 87 1013.4
20240722231539 75 86 11.0 23.0 0.00 0.00 0.00 62 1012.8
20240722230023 82 257 4.0 11.0 0.00 0.00 0.00 66 1012.0
20240722224522 82 270 2.0 12.0 0.00 0.00 0.00 66 1011.8
20240722223022 83 288 2.0 10.0 0.00 0.00 0.00 65 1011.8
20240722221533 84 201 5.0 16.0 0.00 0.00 0.00 63 1011.9
20240722220019 83 240 1.0 7.0 0.00 0.00 0.00 65 1011.9
20240722214521 83 246 6.0 10.0 0.00 0.00 0.00 63 1011.8
20240722213006 83 168 4.0 14.0 0.00 0.00 0.00 63 1012.1
20240722211502 83 253 4.0 13.0 0.00 0.00 0.00 63 1012.4
20240722210104 83 219 2.0 12.0 0.00 0.00 0.00 63 1012.5
20240722204559 83 270 5.0 11.0 0.00 0.00 0.00 63 1012.6
20240722203056 83 284 5.0 11.0 0.00 0.00 0.00 61 1012.9
20240722201556 83 255 6.0 12.0 0.00 0.00 0.00 60 1013.0
20240722200109 83 157 8.0 12.0 0.00 0.00 0.00 59 1013.3
20240722194600 83 253 3.0 8.0 0.00 0.00 0.00 63 1013.5
20240722193033 83 248 4.0 10.0 0.00 0.00 0.00 62 1013.6
20240722191537 83 282 2.0 11.0 0.00 0.00 0.00 62 1013.9
20240722190020 83 259 3.0 7.0 0.00 0.00 0.00 63 1014.2
20240722184513 83 253 3.0 8.0 0.00 0.00 0.00 61 1014.2
20240722183011 82 295 3.0 8.0 0.00 0.00 0.00 62 1014.5
20240722181510 82 292 4.0 9.0 0.00 0.00 0.00 61 1014.7
20240722180009 83 270 2.0 7.0 0.00 0.01 0.00 62 1014.8
20240722174506 83 201 3.0 9.0 0.00 0.01 0.00 62 1014.9
20240722173003 82 215 1.0 5.0 0.00 0.01 0.00 63 1014.9
20240722171502 82 246 1.0 4.0 0.00 0.01 0.00 62 1015.0
20240722170057 81 200 0.0 6.0 0.00 0.10 0.01 65 1015.0
20240722164556 80 240 1.0 4.0 0.00 0.10 0.01 65 1015.1
20240722163040 80 177 1.0 4.0 0.00 0.10 0.01 67 1015.3
20240722161552 79 155 0.0 5.0 0.00 0.10 0.01 71 1015.6
20240722160037 78 282 1.0 5.0 0.00 0.32 0.01 71 1015.7
20240722154535 78 215 1.0 3.0 0.00 0.32 0.01 73 1015.8
20240722153034 77 203 1.0 5.0 0.00 0.32 0.01 72 1015.8
20240722151535 76 270 0.0 4.0 0.00 0.32 0.01 78 1015.7
20240722150030 75 228 0.0 2.0 0.00 0.37 0.01 79 1015.9
20240722144612 75 262 0.0 3.0 0.00 0.37 0.01 79 1016.0
20240722143012 74 228 0.0 4.0 0.00 0.37 0.01 83 1016.0
20240722141613 73 243 0.0 4.0 0.00 0.37 0.01 84 1016.1
20240722140059 72 255 0.0 0.0 0.00 0.37 0.01 87 1016.2
20240722134559 71 243 0.0 0.0 0.00 0.37 0.01 91 1016.2
20240722133109 71 195 0.0 0.0 0.00 0.37 0.01 96 1016.4
20240722131558 69 205 0.0 0.0 0.00 0.37 0.01 97 1016.2
20240722130106 69 218 0.0 0.0 0.00 0.37 0.01 98 1016.0
20240722124617 68 193 0.0 2.0 0.00 0.37 0.01 98 1016.2
20240722123105 68 217 0.0 6.0 0.00 0.37 0.01 98 1016.4
20240722121551 68 215 1.0 3.0 0.00 0.37 0.01 98 1016.5
20240722120043 67 255 1.0 3.0 0.00 0.37 0.01 98 1016.5
20240722114541 67 209 0.0 2.0 0.00 0.37 0.01 98 1016.4
20240722113056 67 276 1.0 3.0 0.00 0.37 0.01 98 1016.3
20240722111541 66 248 0.0 0.0 0.00 0.37 0.01 98 1016.4